EDT,Max TemperatureF,Mean TemperatureF,Min TemperatureF,Max Dew PointF,MeanDew PointF,Min DewpointF,Max Humidity, Mean Humidity, Min Humidity, Max Sea Level PressureIn, Mean Sea Level PressureIn, Min Sea Level PressureIn, Max VisibilityMiles, Mean VisibilityMiles, Min VisibilityMiles, Max Wind SpeedMPH, Mean Wind SpeedMPH, Max Gust SpeedMPH,PrecipitationIn, CloudCover, Events, WindDirDegrees
2012-9-1,82,75,68,72,65,58,87,69,50,30.12,30.07,30.03,10,9,2,10,4,16,0.07,4,Rain,81
2012-9-2,85,76,67,70,66,59,84,74,63,30.03,29.97,29.93,10,10,10,13,5,18,0.01,4,,86
2012-9-3,92,79,65,70,66,61,87,66,44,29.96,29.92,29.86,10,10,10,9,2,14,0.00,1,,85
2012-9-4,86,78,69,72,69,67,93,74,55,29.92,29.89,29.85,10,9,2,21,3,26,0.13,4,Rain,354
2012-9-5,84,75,66,69,66,62,100,76,51,29.90,29.84,29.78,10,9,3,16,5,24,0.00,2,,218
2012-9-6,86,73,60,67,62,56,93,67,40,29.94,29.89,29.83,10,9,3,17,4,22,0.00,2,,287
2012-9-7,80,67,54,66,59,54,100,74,48,29.94,29.87,29.72,10,5,0,20,5,24,0.35,3,Fog-Rain-Thunderstorm,259
2012-9-8,71,62,52,56,52,48,93,70,47,29.87,29.81,29.74,10,10,10,22,9,30,0.01,4,Rain,322
2012-9-9,73,61,48,55,51,48,100,71,41,30.14,29.99,29.86,10,8,2,16,5,20,0.35,4,Rain,343
2012-9-10,74,60,46,51,47,43,100,68,35,30.25,30.19,30.15,10,9,1,9,2,14,0.00,0,,174
2012-9-11,81,67,53,54,51,47,83,60,36,30.21,30.16,30.12,10,10,10,22,9,26,0.00,0,,184
2012-9-12,84,71,57,57,54,52,86,60,34,30.22,30.18,30.14,10,10,10,17,8,22,0.00,0,,190
2012-9-13,82,69,56,61,58,53,100,73,45,30.30,30.23,30.18,10,9,3,17,8,21,0.27,7,Rain,247
2012-9-14,72,61,50,55,51,45,100,69,38,30.33,30.30,30.28,10,8,2,17,6,24,0.20,5,Rain,345
2012-9-15,75,59,43,50,45,40,93,62,31,30.35,30.27,30.18,10,10,10,9,2,14,0.00,0,,182
2012-9-16,78,63,48,54,48,42,93,62,30,30.17,30.10,30.02,10,10,9,15,4,21,0.00,0,,193
2012-9-17,77,66,54,59,54,48,84,65,46,30.02,29.88,29.71,10,10,10,15,6,18,0.01,3,,188
2012-9-18,63,54,45,61,49,32,97,67,37,30.01,29.79,29.69,10,9,4,26,12,37,0.18,6,Rain,329
2012-9-19,69,54,38,43,39,36,96,63,30,30.12,30.03,29.92,10,10,10,23,10,32,0.00,2,,195
2012-9-20,70,59,47,50,43,40,86,62,37,29.92,29.89,29.86,10,10,10,25,9,33,0.02,1,Thunderstorm,228
2012-9-21,70,58,45,51,45,34,100,64,27,29.94,29.90,29.78,10,9,5,23,5,30,0.34,4,Rain,214
2012-9-22,57,51,44,51,46,40,93,74,55,30.13,29.90,29.75,10,8,2,18,7,25,0.71,5,Rain-Thunderstorm,251
2012-9-23,59,50,41,46,42,36,93,74,54,30.25,30.19,30.12,10,9,2,22,6,28,0.07,8,Rain,261
2012-9-24,65,52,39,38,35,31,92,60,28,30.23,30.11,29.94,10,10,10,22,10,29,0.00,1,,215
2012-9-25,69,58,47,58,48,38,93,74,55,29.96,29.91,29.87,10,10,4,15,8,20,0.00,3,,185
2012-9-26,72,60,48,63,57,45,100,69,38,30.15,29.97,29.88,10,4,0,14,5,16,0.00,4,Fog,239
2012-9-27,69,57,44,50,46,42,93,71,49,30.23,30.18,30.15,10,10,10,12,3,20,0.00,5,,90
2012-9-28,69,59,48,51,47,45,89,69,48,30.19,30.15,30.10,10,10,10,10,2,14,0.00,4,,342
2012-9-29,73,57,41,51,45,41,100,68,35,30.12,30.05,29.96,10,9,2,15,5,22,0.00,0,,303
2012-9-30,67,55,43,50,44,39,100,69,37,29.99,29.96,29.94,10,10,5,12,4,18,0.00,2,,39